Terminal Aerodrome Forecast
Issued by NWS Cleveland, OH

Home | Current Version | Previous Version | Graphics & Text | Print | Product List | Glossary On
Versions: 1 2 3 4 5 6 7 8 9 10 11 12 13 14 15 16 17 18 19 20 21 22 23 24 25 26
796
FTUS41 KCLE 240524
TAFCLE
TAF
KCLE 240524Z 2406/2512 14011KT P6SM VCSH SCT040 OVC060
     FM242200 11007KT 6SM -SHRA OVC030
     FM250400 08007KT P6SM VCSH OVC015
     FM250800 03004KT 3SM BR OVC007=

USA.gov is the U.S. government's official web portal to all federal, state and local government web resources and services.